sensor_id;sensor_type;location;lat;lon;timestamp;pressure;altitude;pressure_sealevel;temperature;humidity
59073;BME280;44859;51.934;15.554;2023-11-22T00:02:18;100499.33;;;-2.58;100.00
59073;BME280;44859;51.934;15.554;2023-11-22T00:04:56;100507.40;;;-2.59;100.00
59073;BME280;44859;51.934;15.554;2023-11-22T00:07:28;100512.92;;;-2.58;100.00
59073;BME280;44859;51.934;15.554;2023-11-22T00:10:00;100519.91;;;-2.62;100.00
59073;BME280;44859;51.934;15.554;2023-11-22T00:12:32;100521.61;;;-2.62;100.00
59073;BME280;44859;51.934;15.554;2023-11-22T00:15:06;100517.47;;;-2.64;100.00
59073;BME280;44859;51.934;15.554;2023-11-22T00:17:38;100519.02;;;-2.63;100.00
59073;BME280;44859;51.934;15.554;2023-11-22T00:20:07;100515.02;;;-2.67;100.00
59073;BME280;44859;51.934;15.554;2023-11-22T00:22:36;100518.91;;;-2.70;100.00
59073;BME280;44859;51.934;15.554;2023-11-22T00:25:08;100515.80;;;-2.72;100.00
59073;BME280;44859;51.934;15.554;2023-11-22T00:27:41;100520.44;;;-2.72;100.00
59073;BME280;44859;51.934;15.554;2023-11-22T00:30:17;100525.25;;;-2.72;100.00
59073;BME280;44859;51.934;15.554;2023-11-22T00:32:56;100523.27;;;-2.77;100.00
59073;BME280;44859;51.934;15.554;2023-11-22T00:35:25;100523.64;;;-2.75;100.00
59073;BME280;44859;51.934;15.554;2023-11-22T00:37:53;100526.19;;;-2.77;100.00
59073;BME280;44859;51.934;15.554;2023-11-22T00:40:22;100527.19;;;-2.79;100.00
59073;BME280;44859;51.934;15.554;2023-11-22T00:42:53;100532.48;;;-2.81;100.00
59073;BME280;44859;51.934;15.554;2023-11-22T00:45:24;100537.92;;;-2.84;100.00
59073;BME280;44859;51.934;15.554;2023-11-22T00:47:53;100546.27;;;-2.88;100.00
59073;BME280;44859;51.934;15.554;2023-11-22T00:50:24;100553.53;;;-2.86;100.00
59073;BME280;44859;51.934;15.554;2023-11-22T00:52:52;100553.34;;;-2.87;100.00
59073;BME280;44859;51.934;15.554;2023-11-22T00:55:22;100556.02;;;-2.92;100.00
59073;BME280;44859;51.934;15.554;2023-11-22T00:57:50;100562.73;;;-3.00;100.00
59073;BME280;44859;51.934;15.554;2023-11-22T01:00:19;100565.11;;;-3.01;100.00
59073;BME280;44859;51.934;15.554;2023-11-22T01:02:50;100565.92;;;-3.04;100.00
59073;BME280;44859;51.934;15.554;2023-11-22T01:05:19;100565.67;;;-3.08;100.00
59073;BME280;44859;51.934;15.554;2023-11-22T01:07:48;100572.16;;;-3.10;100.00
59073;BME280;44859;51.934;15.554;2023-11-22T01:10:22;100579.76;;;-3.09;100.00
59073;BME280;44859;51.934;15.554;2023-11-22T01:12:53;100582.33;;;-3.09;100.00
59073;BME280;44859;51.934;15.554;2023-11-22T01:15:23;100575.11;;;-3.09;100.00
59073;BME280;44859;51.934;15.554;2023-11-22T01:17:53;100577.01;;;-3.09;100.00
59073;BME280;44859;51.934;15.554;2023-11-22T01:20:21;100578.23;;;-3.08;100.00
59073;BME280;44859;51.934;15.554;2023-11-22T01:22:53;100574.95;;;-3.08;100.00
59073;BME280;44859;51.934;15.554;2023-11-22T01:25:34;100580.43;;;-3.09;100.00
59073;BME280;44859;51.934;15.554;2023-11-22T01:28:03;100589.30;;;-3.13;100.00
59073;BME280;44859;51.934;15.554;2023-11-22T01:30:32;100592.66;;;-3.17;100.00
59073;BME280;44859;51.934;15.554;2023-11-22T01:33:14;100591.96;;;-3.18;100.00
59073;BME280;44859;51.934;15.554;2023-11-22T01:35:45;100588.11;;;-3.21;100.00
59073;BME280;44859;51.934;15.554;2023-11-22T01:38:15;100590.30;;;-3.23;100.00
59073;BME280;44859;51.934;15.554;2023-11-22T01:40:44;100598.54;;;-3.23;100.00
59073;BME280;44859;51.934;15.554;2023-11-22T01:43:19;100598.67;;;-3.26;100.00
59073;BME280;44859;51.934;15.554;2023-11-22T01:45:54;100598.95;;;-3.28;100.00
59073;BME280;44859;51.934;15.554;2023-11-22T01:48:22;100602.16;;;-3.32;100.00
59073;BME280;44859;51.934;15.554;2023-11-22T01:50:51;100614.05;;;-3.30;100.00
59073;BME280;44859;51.934;15.554;2023-11-22T01:53:20;100609.50;;;-3.33;100.00
59073;BME280;44859;51.934;15.554;2023-11-22T01:56:00;100610.50;;;-3.35;100.00
59073;BME280;44859;51.934;15.554;2023-11-22T01:58:34;100620.24;;;-3.37;100.00
59073;BME280;44859;51.934;15.554;2023-11-22T02:01:04;100618.48;;;-3.39;100.00
59073;BME280;44859;51.934;15.554;2023-11-22T02:03:32;100616.91;;;-3.40;100.00
59073;BME280;44859;51.934;15.554;2023-11-22T02:06:07;100619.69;;;-3.39;100.00
59073;BME280;44859;51.934;15.554;2023-11-22T02:08:41;100626.27;;;-3.37;100.00
59073;BME280;44859;51.934;15.554;2023-11-22T02:11:19;100629.00;;;-3.38;100.00
59073;BME280;44859;51.934;15.554;2023-11-22T02:13:54;100639.56;;;-3.41;100.00
59073;BME280;44859;51.934;15.554;2023-11-22T02:16:33;100644.36;;;-3.42;100.00
59073;BME280;44859;51.934;15.554;2023-11-22T02:19:19;100647.82;;;-3.40;100.00
59073;BME280;44859;51.934;15.554;2023-11-22T02:22:42;100652.55;;;-3.45;100.00
59073;BME280;44859;51.934;15.554;2023-11-22T02:25:24;100656.80;;;-3.46;100.00
59073;BME280;44859;51.934;15.554;2023-11-22T02:27:58;100652.16;;;-3.47;100.00
59073;BME280;44859;51.934;15.554;2023-11-22T02:30:30;100648.70;;;-3.47;100.00
59073;BME280;44859;51.934;15.554;2023-11-22T02:33:02;100646.78;;;-3.49;100.00
59073;BME280;44859;51.934;15.554;2023-11-22T02:35:36;100651.11;;;-3.47;100.00
59073;BME280;44859;51.934;15.554;2023-11-22T02:38:10;100656.44;;;-3.47;100.00
59073;BME280;44859;51.934;15.554;2023-11-22T02:40:41;100663.52;;;-3.46;100.00
59073;BME280;44859;51.934;15.554;2023-11-22T02:43:12;100670.83;;;-3.49;100.00
59073;BME280;44859;51.934;15.554;2023-11-22T02:45:41;100670.56;;;-3.52;100.00
59073;BME280;44859;51.934;15.554;2023-11-22T02:48:15;100676.23;;;-3.53;100.00
59073;BME280;44859;51.934;15.554;2023-11-22T02:50:45;100668.65;;;-3.54;100.00
59073;BME280;44859;51.934;15.554;2023-11-22T02:53:17;100663.00;;;-3.53;100.00
59073;BME280;44859;51.934;15.554;2023-11-22T02:55:47;100657.29;;;-3.55;100.00
59073;BME280;44859;51.934;15.554;2023-11-22T02:58:24;100651.23;;;-3.57;100.00
59073;BME280;44859;51.934;15.554;2023-11-22T03:01:01;100644.75;;;-3.63;100.00
59073;BME280;44859;51.934;15.554;2023-11-22T03:03:29;100647.23;;;-3.68;100.00
59073;BME280;44859;51.934;15.554;2023-11-22T03:06:01;100650.60;;;-3.71;100.00
59073;BME280;44859;51.934;15.554;2023-11-22T03:08:35;100651.58;;;-3.73;100.00
59073;BME280;44859;51.934;15.554;2023-11-22T03:11:04;100658.92;;;-3.74;100.00
59073;BME280;44859;51.934;15.554;2023-11-22T03:13:38;100667.92;;;-3.78;100.00
59073;BME280;44859;51.934;15.554;2023-11-22T03:16:06;100683.29;;;-3.82;100.00
59073;BME280;44859;51.934;15.554;2023-11-22T03:18:38;100695.02;;;-3.86;100.00
59073;BME280;44859;51.934;15.554;2023-11-22T03:21:07;100701.27;;;-3.91;100.00
59073;BME280;44859;51.934;15.554;2023-11-22T03:23:45;100709.34;;;-3.90;100.00
59073;BME280;44859;51.934;15.554;2023-11-22T03:26:14;100708.42;;;-3.93;100.00
59073;BME280;44859;51.934;15.554;2023-11-22T03:28:50;100705.88;;;-3.99;100.00
59073;BME280;44859;51.934;15.554;2023-11-22T03:31:25;100700.58;;;-4.05;100.00
59073;BME280;44859;51.934;15.554;2023-11-22T03:34:11;100700.46;;;-4.09;100.00
59073;BME280;44859;51.934;15.554;2023-11-22T03:37:05;100704.63;;;-4.07;100.00
59073;BME280;44859;51.934;15.554;2023-11-22T03:39:55;100711.06;;;-4.11;100.00
59073;BME280;44859;51.934;15.554;2023-11-22T03:42:36;100720.73;;;-4.15;100.00
59073;BME280;44859;51.934;15.554;2023-11-22T03:45:09;100725.81;;;-4.18;100.00
59073;BME280;44859;51.934;15.554;2023-11-22T03:47:43;100728.11;;;-4.22;100.00
59073;BME280;44859;51.934;15.554;2023-11-22T03:50:22;100724.13;;;-4.29;100.00
59073;BME280;44859;51.934;15.554;2023-11-22T03:52:53;100729.42;;;-4.30;100.00
59073;BME280;44859;51.934;15.554;2023-11-22T03:55:23;100744.21;;;-4.29;100.00
59073;BME280;44859;51.934;15.554;2023-11-22T03:57:51;100760.66;;;-4.30;100.00
59073;BME280;44859;51.934;15.554;2023-11-22T04:00:27;100766.27;;;-4.31;100.00
59073;BME280;44859;51.934;15.554;2023-11-22T04:03:11;100766.80;;;-4.38;100.00
59073;BME280;44859;51.934;15.554;2023-11-22T04:05:43;100769.07;;;-4.42;100.00
59073;BME280;44859;51.934;15.554;2023-11-22T04:08:17;100777.55;;;-4.45;100.00
59073;BME280;44859;51.934;15.554;2023-11-22T04:10:59;100780.86;;;-4.50;100.00
59073;BME280;44859;51.934;15.554;2023-11-22T04:13:29;100782.38;;;-4.51;100.00
59073;BME280;44859;51.934;15.554;2023-11-22T04:16:04;100788.23;;;-4.50;100.00
59073;BME280;44859;51.934;15.554;2023-11-22T04:18:58;100798.30;;;-4.52;100.00
59073;BME280;44859;51.934;15.554;2023-11-22T04:21:29;100801.69;;;-4.59;100.00
59073;BME280;44859;51.934;15.554;2023-11-22T04:24:00;100806.79;;;-4.66;100.00
59073;BME280;44859;51.934;15.554;2023-11-22T04:26:32;100818.52;;;-4.69;100.00
59073;BME280;44859;51.934;15.554;2023-11-22T04:29:18;100834.73;;;-4.72;100.00
59073;BME280;44859;51.934;15.554;2023-11-22T04:31:56;100845.66;;;-4.74;100.00
59073;BME280;44859;51.934;15.554;2023-11-22T04:34:28;100842.80;;;-4.77;100.00
59073;BME280;44859;51.934;15.554;2023-11-22T04:37:06;100837.69;;;-4.82;100.00
59073;BME280;44859;51.934;15.554;2023-11-22T04:39:35;100840.63;;;-4.87;100.00
59073;BME280;44859;51.934;15.554;2023-11-22T04:42:06;100846.91;;;-4.89;100.00
59073;BME280;44859;51.934;15.554;2023-11-22T04:44:44;100859.58;;;-4.95;100.00
59073;BME280;44859;51.934;15.554;2023-11-22T04:47:12;100859.15;;;-4.97;100.00
59073;BME280;44859;51.934;15.554;2023-11-22T04:49:54;100858.26;;;-4.98;100.00
59073;BME280;44859;51.934;15.554;2023-11-22T04:52:23;100866.13;;;-4.99;100.00
59073;BME280;44859;51.934;15.554;2023-11-22T04:55:07;100867.56;;;-4.97;100.00
59073;BME280;44859;51.934;15.554;2023-11-22T04:57:43;100874.62;;;-5.01;100.00
59073;BME280;44859;51.934;15.554;2023-11-22T05:00:27;100872.83;;;-5.04;100.00
59073;BME280;44859;51.934;15.554;2023-11-22T05:03:16;100871.75;;;-5.05;100.00
59073;BME280;44859;51.934;15.554;2023-11-22T05:05:49;100870.20;;;-5.06;100.00
59073;BME280;44859;51.934;15.554;2023-11-22T05:08:24;100870.45;;;-5.02;100.00
59073;BME280;44859;51.934;15.554;2023-11-22T05:11:11;100870.36;;;-5.06;100.00
59073;BME280;44859;51.934;15.554;2023-11-22T05:13:49;100872.36;;;-5.08;100.00
59073;BME280;44859;51.934;15.554;2023-11-22T05:16:30;100878.61;;;-5.10;100.00
59073;BME280;44859;51.934;15.554;2023-11-22T05:19:09;100887.08;;;-5.08;100.00
59073;BME280;44859;51.934;15.554;2023-11-22T05:21:37;100887.75;;;-5.09;100.00
59073;BME280;44859;51.934;15.554;2023-11-22T05:24:06;100891.38;;;-5.13;100.00
59073;BME280;44859;51.934;15.554;2023-11-22T05:26:35;100893.55;;;-5.14;100.00
59073;BME280;44859;51.934;15.554;2023-11-22T05:29:07;100892.86;;;-5.15;100.00
59073;BME280;44859;51.934;15.554;2023-11-22T05:31:36;100892.19;;;-5.19;100.00
59073;BME280;44859;51.934;15.554;2023-11-22T05:34:05;100890.87;;;-5.23;100.00
59073;BME280;44859;51.934;15.554;2023-11-22T05:36:33;100894.58;;;-5.25;100.00
59073;BME280;44859;51.934;15.554;2023-11-22T05:39:02;100902.40;;;-5.27;100.00
59073;BME280;44859;51.934;15.554;2023-11-22T05:41:34;100912.96;;;-5.28;100.00
59073;BME280;44859;51.934;15.554;2023-11-22T05:44:04;100912.22;;;-5.30;100.00
59073;BME280;44859;51.934;15.554;2023-11-22T05:46:32;100907.99;;;-5.34;100.00
59073;BME280;44859;51.934;15.554;2023-11-22T05:49:04;100909.41;;;-5.37;100.00
59073;BME280;44859;51.934;15.554;2023-11-22T05:51:36;100906.77;;;-5.39;100.00
59073;BME280;44859;51.934;15.554;2023-11-22T05:54:08;100907.01;;;-5.43;100.00
59073;BME280;44859;51.934;15.554;2023-11-22T05:56:39;100909.55;;;-5.44;100.00
59073;BME280;44859;51.934;15.554;2023-11-22T05:59:08;100909.73;;;-5.43;100.00
59073;BME280;44859;51.934;15.554;2023-11-22T06:01:36;100903.33;;;-5.45;100.00
59073;BME280;44859;51.934;15.554;2023-11-22T06:04:07;100898.05;;;-5.45;100.00
59073;BME280;44859;51.934;15.554;2023-11-22T06:06:38;100894.52;;;-5.42;100.00
59073;BME280;44859;51.934;15.554;2023-11-22T06:09:07;100895.41;;;-5.41;100.00
59073;BME280;44859;51.934;15.554;2023-11-22T06:11:39;100898.14;;;-5.42;100.00
59073;BME280;44859;51.934;15.554;2023-11-22T06:14:08;100904.33;;;-5.41;100.00
59073;BME280;44859;51.934;15.554;2023-11-22T06:16:36;100914.96;;;-5.40;100.00
59073;BME280;44859;51.934;15.554;2023-11-22T06:19:10;100914.45;;;-5.40;100.00
59073;BME280;44859;51.934;15.554;2023-11-22T06:21:38;100918.14;;;-5.43;100.00
59073;BME280;44859;51.934;15.554;2023-11-22T06:24:06;100918.02;;;-5.46;100.00
59073;BME280;44859;51.934;15.554;2023-11-22T06:26:44;100920.66;;;-5.44;100.00
59073;BME280;44859;51.934;15.554;2023-11-22T06:29:14;100922.85;;;-5.45;100.00
59073;BME280;44859;51.934;15.554;2023-11-22T06:31:47;100935.59;;;-5.53;100.00
59073;BME280;44859;51.934;15.554;2023-11-22T06:34:15;100946.44;;;-5.56;100.00
59073;BME280;44859;51.934;15.554;2023-11-22T06:36:44;100954.83;;;-5.56;100.00
59073;BME280;44859;51.934;15.554;2023-11-22T06:39:12;100960.61;;;-5.57;100.00
59073;BME280;44859;51.934;15.554;2023-11-22T06:41:41;100962.00;;;-5.61;100.00
59073;BME280;44859;51.934;15.554;2023-11-22T06:44:10;100966.20;;;-5.63;100.00
59073;BME280;44859;51.934;15.554;2023-11-22T06:46:40;100971.88;;;-5.63;100.00
59073;BME280;44859;51.934;15.554;2023-11-22T06:49:09;100983.95;;;-5.60;100.00
59073;BME280;44859;51.934;15.554;2023-11-22T06:51:41;100999.88;;;-5.64;100.00
59073;BME280;44859;51.934;15.554;2023-11-22T06:54:13;101010.78;;;-5.66;100.00
59073;BME280;44859;51.934;15.554;2023-11-22T06:56:45;101018.89;;;-5.64;100.00
59073;BME280;44859;51.934;15.554;2023-11-22T06:59:14;101026.02;;;-5.66;100.00
59073;BME280;44859;51.934;15.554;2023-11-22T07:01:46;101042.97;;;-5.66;100.00
59073;BME280;44859;51.934;15.554;2023-11-22T07:04:15;101049.14;;;-5.66;100.00
59073;BME280;44859;51.934;15.554;2023-11-22T07:06:55;101044.86;;;-5.65;100.00
59073;BME280;44859;51.934;15.554;2023-11-22T07:09:50;101055.77;;;-5.66;100.00
59073;BME280;44859;51.934;15.554;2023-11-22T07:12:29;101055.48;;;-5.65;100.00
59073;BME280;44859;51.934;15.554;2023-11-22T07:15:01;101038.46;;;-5.67;100.00
59073;BME280;44859;51.934;15.554;2023-11-22T07:17:31;101019.63;;;-5.62;100.00
59073;BME280;44859;51.934;15.554;2023-11-22T07:20:06;101001.28;;;-5.59;100.00
59073;BME280;44859;51.934;15.554;2023-11-22T07:22:44;100988.17;;;-5.57;100.00
59073;BME280;44859;51.934;15.554;2023-11-22T07:25:13;101000.62;;;-5.49;100.00
59073;BME280;44859;51.934;15.554;2023-11-22T07:27:47;101009.22;;;-5.42;100.00
59073;BME280;44859;51.934;15.554;2023-11-22T07:30:16;101022.33;;;-5.36;100.00
59073;BME280;44859;51.934;15.554;2023-11-22T07:32:47;101031.33;;;-5.32;100.00
59073;BME280;44859;51.934;15.554;2023-11-22T07:35:17;101030.48;;;-5.32;100.00
59073;BME280;44859;51.934;15.554;2023-11-22T07:37:50;101029.39;;;-5.29;100.00
59073;BME280;44859;51.934;15.554;2023-11-22T07:40:21;101025.73;;;-5.31;100.00
59073;BME280;44859;51.934;15.554;2023-11-22T07:42:50;101017.71;;;-5.25;100.00
59073;BME280;44859;51.934;15.554;2023-11-22T07:45:19;101010.05;;;-5.24;100.00
59073;BME280;44859;51.934;15.554;2023-11-22T07:47:48;101008.89;;;-5.22;100.00
59073;BME280;44859;51.934;15.554;2023-11-22T07:50:19;101000.64;;;-5.23;100.00
59073;BME280;44859;51.934;15.554;2023-11-22T07:52:49;100999.58;;;-5.19;100.00
59073;BME280;44859;51.934;15.554;2023-11-22T07:55:18;101001.19;;;-5.17;100.00
59073;BME280;44859;51.934;15.554;2023-11-22T07:57:47;101005.23;;;-5.14;100.00
59073;BME280;44859;51.934;15.554;2023-11-22T08:00:17;101008.91;;;-5.12;100.00
59073;BME280;44859;51.934;15.554;2023-11-22T08:02:47;101013.95;;;-5.10;100.00
59073;BME280;44859;51.934;15.554;2023-11-22T08:05:16;101018.69;;;-5.07;100.00
59073;BME280;44859;51.934;15.554;2023-11-22T08:07:44;101028.55;;;-5.04;100.00
59073;BME280;44859;51.934;15.554;2023-11-22T08:10:17;101033.29;;;-5.01;100.00
59073;BME280;44859;51.934;15.554;2023-11-22T08:12:49;101032.87;;;-4.97;100.00
59073;BME280;44859;51.934;15.554;2023-11-22T08:15:20;101035.64;;;-4.92;100.00
59073;BME280;44859;51.934;15.554;2023-11-22T08:17:50;101038.38;;;-4.87;100.00
59073;BME280;44859;51.934;15.554;2023-11-22T08:20:18;101039.61;;;-4.86;100.00
59073;BME280;44859;51.934;15.554;2023-11-22T08:22:47;101044.25;;;-4.86;100.00
59073;BME280;44859;51.934;15.554;2023-11-22T08:25:19;101043.48;;;-4.83;100.00
59073;BME280;44859;51.934;15.554;2023-11-22T08:27:48;101048.92;;;-4.79;100.00
59073;BME280;44859;51.934;15.554;2023-11-22T08:30:16;101046.63;;;-4.76;100.00
59073;BME280;44859;51.934;15.554;2023-11-22T08:32:47;101051.33;;;-4.74;100.00
59073;BME280;44859;51.934;15.554;2023-11-22T08:35:22;101041.34;;;-4.70;100.00
59073;BME280;44859;51.934;15.554;2023-11-22T08:37:59;101038.54;;;-4.66;100.00
59073;BME280;44859;51.934;15.554;2023-11-22T08:40:31;101049.19;;;-4.66;100.00
59073;BME280;44859;51.934;15.554;2023-11-22T08:43:00;101061.97;;;-4.63;100.00
59073;BME280;44859;51.934;15.554;2023-11-22T08:45:29;101060.76;;;-4.63;100.00
59073;BME280;44859;51.934;15.554;2023-11-22T08:47:58;101066.46;;;-4.62;100.00
59073;BME280;44859;51.934;15.554;2023-11-22T08:50:27;101074.36;;;-4.57;100.00
59073;BME280;44859;51.934;15.554;2023-11-22T08:52:56;101075.80;;;-4.54;100.00
59073;BME280;44859;51.934;15.554;2023-11-22T08:55:26;101073.59;;;-4.49;100.00
59073;BME280;44859;51.934;15.554;2023-11-22T08:57:54;101072.29;;;-4.46;100.00
59073;BME280;44859;51.934;15.554;2023-11-22T09:00:23;101069.32;;;-4.43;100.00
59073;BME280;44859;51.934;15.554;2023-11-22T09:02:52;101070.52;;;-4.38;100.00
59073;BME280;44859;51.934;15.554;2023-11-22T09:05:21;101072.89;;;-4.34;100.00
59073;BME280;44859;51.934;15.554;2023-11-22T09:07:50;101066.18;;;-4.34;100.00
59073;BME280;44859;51.934;15.554;2023-11-22T09:10:19;101066.35;;;-4.34;100.00
59073;BME280;44859;51.934;15.554;2023-11-22T09:12:50;101071.75;;;-4.31;100.00
59073;BME280;44859;51.934;15.554;2023-11-22T09:15:21;101080.73;;;-4.29;100.00
59073;BME280;44859;51.934;15.554;2023-11-22T09:17:55;101083.70;;;-4.28;100.00
59073;BME280;44859;51.934;15.554;2023-11-22T09:20:24;101086.45;;;-4.28;100.00
59073;BME280;44859;51.934;15.554;2023-11-22T09:22:53;101092.16;;;-4.26;100.00
59073;BME280;44859;51.934;15.554;2023-11-22T09:25:25;101090.70;;;-4.23;100.00
59073;BME280;44859;51.934;15.554;2023-11-22T09:27:59;101090.98;;;-4.20;100.00
59073;BME280;44859;51.934;15.554;2023-11-22T09:30:28;101094.33;;;-4.17;100.00
59073;BME280;44859;51.934;15.554;2023-11-22T09:33:14;101084.27;;;-4.15;100.00
59073;BME280;44859;51.934;15.554;2023-11-22T09:35:46;101079.28;;;-4.16;100.00
59073;BME280;44859;51.934;15.554;2023-11-22T09:38:16;101088.83;;;-4.12;100.00
59073;BME280;44859;51.934;15.554;2023-11-22T09:40:45;101097.30;;;-4.04;100.00
59073;BME280;44859;51.934;15.554;2023-11-22T09:43:15;101100.73;;;-3.99;100.00
59073;BME280;44859;51.934;15.554;2023-11-22T09:45:47;101096.78;;;-3.94;100.00
59073;BME280;44859;51.934;15.554;2023-11-22T09:48:23;101091.39;;;-3.90;100.00
59073;BME280;44859;51.934;15.554;2023-11-22T09:50:56;101085.44;;;-3.88;100.00
59073;BME280;44859;51.934;15.554;2023-11-22T09:53:32;101087.50;;;-3.89;100.00
59073;BME280;44859;51.934;15.554;2023-11-22T09:56:02;101082.54;;;-3.93;100.00
59073;BME280;44859;51.934;15.554;2023-11-22T09:58:32;101078.30;;;-3.92;100.00
59073;BME280;44859;51.934;15.554;2023-11-22T10:01:04;101076.95;;;-3.86;100.00
59073;BME280;44859;51.934;15.554;2023-11-22T10:03:33;101082.30;;;-3.79;100.00
59073;BME280;44859;51.934;15.554;2023-11-22T10:06:01;101077.70;;;-3.72;100.00
59073;BME280;44859;51.934;15.554;2023-11-22T10:08:32;101069.86;;;-3.64;100.00
59073;BME280;44859;51.934;15.554;2023-11-22T10:11:01;101061.77;;;-3.58;100.00
59073;BME280;44859;51.934;15.554;2023-11-22T10:13:29;101058.27;;;-3.55;100.00
59073;BME280;44859;51.934;15.554;2023-11-22T10:16:10;101053.77;;;-3.51;100.00
59073;BME280;44859;51.934;15.554;2023-11-22T10:18:42;101056.38;;;-3.49;100.00
59073;BME280;44859;51.934;15.554;2023-11-22T10:21:21;101061.76;;;-3.48;100.00
59073;BME280;44859;51.934;15.554;2023-11-22T10:23:51;101066.92;;;-3.40;100.00
59073;BME280;44859;51.934;15.554;2023-11-22T10:26:21;101063.05;;;-3.38;100.00
59073;BME280;44859;51.934;15.554;2023-11-22T10:28:52;101069.38;;;-3.34;100.00
59073;BME280;44859;51.934;15.554;2023-11-22T10:31:21;101077.42;;;-3.28;100.00
59073;BME280;44859;51.934;15.554;2023-11-22T10:33:50;101074.55;;;-3.27;100.00
59073;BME280;44859;51.934;15.554;2023-11-22T10:36:22;101072.23;;;-3.23;100.00
59073;BME280;44859;51.934;15.554;2023-11-22T10:38:53;101076.06;;;-3.21;100.00
59073;BME280;44859;51.934;15.554;2023-11-22T10:41:26;101068.17;;;-3.15;100.00
59073;BME280;44859;51.934;15.554;2023-11-22T10:43:55;101068.71;;;-3.14;100.00
59073;BME280;44859;51.934;15.554;2023-11-22T10:46:28;101075.27;;;-3.13;100.00
59073;BME280;44859;51.934;15.554;2023-11-22T10:48:58;101072.17;;;-3.13;100.00
59073;BME280;44859;51.934;15.554;2023-11-22T10:51:30;101062.89;;;-3.19;100.00
59073;BME280;44859;51.934;15.554;2023-11-22T10:54:01;101066.81;;;-3.21;100.00
59073;BME280;44859;51.934;15.554;2023-11-22T10:56:37;101062.95;;;-3.17;100.00
59073;BME280;44859;51.934;15.554;2023-11-22T10:59:10;101057.14;;;-3.09;100.00
59073;BME280;44859;51.934;15.554;2023-11-22T11:01:43;101049.96;;;-3.08;100.00
59073;BME280;44859;51.934;15.554;2023-11-22T11:04:23;101049.94;;;-3.09;100.00
59073;BME280;44859;51.934;15.554;2023-11-22T11:06:54;101051.04;;;-3.06;100.00
59073;BME280;44859;51.934;15.554;2023-11-22T11:09:25;101052.23;;;-3.01;100.00
59073;BME280;44859;51.934;15.554;2023-11-22T11:12:01;101055.66;;;-2.94;100.00
59073;BME280;44859;51.934;15.554;2023-11-22T11:14:36;101060.78;;;-2.89;100.00
59073;BME280;44859;51.934;15.554;2023-11-22T11:17:05;101065.34;;;-2.85;100.00
59073;BME280;44859;51.934;15.554;2023-11-22T11:19:37;101068.75;;;-2.80;100.00
59073;BME280;44859;51.934;15.554;2023-11-22T11:22:09;101072.88;;;-2.80;100.00
59073;BME280;44859;51.934;15.554;2023-11-22T11:24:41;101070.47;;;-2.80;100.00
59073;BME280;44859;51.934;15.554;2023-11-22T11:27:12;101073.89;;;-2.81;99.96
59073;BME280;44859;51.934;15.554;2023-11-22T11:29:41;101074.77;;;-2.80;99.73
59073;BME280;44859;51.934;15.554;2023-11-22T11:32:15;101072.73;;;-2.79;99.55
59073;BME280;44859;51.934;15.554;2023-11-22T11:34:47;101072.77;;;-2.77;99.04
59073;BME280;44859;51.934;15.554;2023-11-22T11:37:19;101065.02;;;-2.78;98.87
59073;BME280;44859;51.934;15.554;2023-11-22T11:39:47;101065.61;;;-2.75;98.79
59073;BME280;44859;51.934;15.554;2023-11-22T11:42:16;101076.02;;;-2.72;98.49
59073;BME280;44859;51.934;15.554;2023-11-22T11:47:29;101088.30;;;-2.62;98.09
59073;BME280;44859;51.934;15.554;2023-11-22T11:50:00;101085.62;;;-2.59;97.71
59073;BME280;44859;51.934;15.554;2023-11-22T11:52:33;101085.19;;;-2.56;97.80
59073;BME280;44859;51.934;15.554;2023-11-22T11:55:04;101088.52;;;-2.53;97.45
59073;BME280;44859;51.934;15.554;2023-11-22T11:57:33;101087.38;;;-2.51;97.46
59073;BME280;44859;51.934;15.554;2023-11-22T12:00:06;101085.08;;;-2.47;97.87
59073;BME280;44859;51.934;15.554;2023-11-22T12:02:34;101082.70;;;-2.46;97.67
59073;BME280;44859;51.934;15.554;2023-11-22T12:05:03;101073.50;;;-2.42;97.84
59073;BME280;44859;51.934;15.554;2023-11-22T12:07:40;101056.06;;;-2.37;97.73
59073;BME280;44859;51.934;15.554;2023-11-22T12:10:09;101043.92;;;-2.34;97.64
59073;BME280;44859;51.934;15.554;2023-11-22T12:12:44;101036.04;;;-2.33;97.03
59073;BME280;44859;51.934;15.554;2023-11-22T12:15:14;101030.11;;;-2.29;96.85
59073;BME280;44859;51.934;15.554;2023-11-22T12:17:44;101027.16;;;-2.22;96.75
59073;BME280;44859;51.934;15.554;2023-11-22T12:20:14;101027.31;;;-2.16;96.81
59073;BME280;44859;51.934;15.554;2023-11-22T12:22:47;101022.23;;;-2.12;96.82
59073;BME280;44859;51.934;15.554;2023-11-22T12:25:17;101015.56;;;-2.18;96.53
59073;BME280;44859;51.934;15.554;2023-11-22T12:27:46;101009.44;;;-2.23;96.15
59073;BME280;44859;51.934;15.554;2023-11-22T12:30:35;101001.73;;;-2.21;96.42
59073;BME280;44859;51.934;15.554;2023-11-22T12:33:08;100996.35;;;-2.15;96.25
59073;BME280;44859;51.934;15.554;2023-11-22T12:35:45;100996.64;;;-2.09;96.35
59073;BME280;44859;51.934;15.554;2023-11-22T12:38:14;100987.67;;;-2.02;96.53
59073;BME280;44859;51.934;15.554;2023-11-22T12:40:46;100993.16;;;-1.96;96.57
59073;BME280;44859;51.934;15.554;2023-11-22T12:43:15;100992.91;;;-1.91;96.62
59073;BME280;44859;51.934;15.554;2023-11-22T12:45:43;100992.60;;;-1.90;96.60
59073;BME280;44859;51.934;15.554;2023-11-22T12:48:21;100997.98;;;-1.87;96.67
59073;BME280;44859;51.934;15.554;2023-11-22T12:50:54;100997.49;;;-1.86;96.48
59073;BME280;44859;51.934;15.554;2023-11-22T12:53:25;101007.73;;;-1.82;96.75
59073;BME280;44859;51.934;15.554;2023-11-22T12:55:56;101010.33;;;-1.81;96.74
59073;BME280;44859;51.934;15.554;2023-11-22T12:58:26;101014.88;;;-1.78;96.56
59073;BME280;44859;51.934;15.554;2023-11-22T13:00:54;101015.27;;;-1.75;96.52